createdAt,value
2022-09-01T00:00:37.262Z,1022.63
2022-09-01T00:01:37.227Z,1022.65
2022-09-01T00:02:37.247Z,1022.69
2022-09-01T00:03:37.279Z,1022.60
2022-09-01T00:04:37.280Z,1022.70
2022-09-01T00:05:37.221Z,1022.61
2022-09-01T00:06:37.414Z,1022.64
2022-09-01T00:07:37.134Z,1022.62
2022-09-01T00:08:37.125Z,1022.64
2022-09-01T00:09:37.122Z,1022.64
2022-09-01T00:10:37.092Z,1022.60
2022-09-01T00:11:37.107Z,1022.64
2022-09-01T00:12:37.091Z,1022.64
2022-09-01T00:13:37.052Z,1022.60
2022-09-01T00:14:40.985Z,1022.53
2022-09-01T00:15:37.079Z,1022.68
2022-09-01T00:16:38.905Z,1022.64
2022-09-01T00:17:37.018Z,1022.68
2022-09-01T00:18:36.985Z,1022.70
2022-09-01T00:19:36.997Z,1022.71
2022-09-01T00:20:37.062Z,1022.69
2022-09-01T00:21:36.961Z,1022.63
2022-09-01T00:22:37.899Z,1022.69
2022-09-01T00:23:36.916Z,1022.63
2022-09-01T00:24:36.917Z,1022.64
2022-09-01T00:25:36.906Z,1022.61
2022-09-01T00:26:36.925Z,1022.65
2022-09-01T00:27:36.865Z,1022.57
2022-09-01T00:28:37.526Z,1022.63
2022-09-01T00:29:36.857Z,1022.57
2022-09-01T00:30:36.890Z,1022.68
2022-09-01T00:31:36.837Z,1022.69
2022-09-01T00:32:36.807Z,1022.66
2022-09-01T00:33:36.797Z,1022.65
2022-09-01T00:34:36.788Z,1022.63
2022-09-01T00:35:37.293Z,1022.62
2022-09-01T00:36:36.753Z,1022.67
2022-09-01T00:37:36.797Z,1022.59
2022-09-01T00:38:36.737Z,1022.61
2022-09-01T00:39:36.724Z,1022.59
2022-09-01T00:40:36.790Z,1022.59
2022-09-01T00:41:36.726Z,1022.57
2022-09-01T00:42:36.715Z,1022.58
2022-09-01T00:43:36.663Z,1022.59
2022-09-01T00:44:36.652Z,1022.51
2022-09-01T00:45:36.634Z,1022.55
2022-09-01T00:46:36.665Z,1022.53
2022-09-01T00:47:37.676Z,1022.53
2022-09-01T00:48:36.600Z,1022.57
2022-09-01T00:49:36.931Z,1022.58
2022-09-01T00:50:36.608Z,1022.58
2022-09-01T00:51:36.597Z,1022.58
2022-09-01T00:52:36.543Z,1022.54
2022-09-01T00:53:36.796Z,1022.60
2022-09-01T00:54:36.544Z,1022.55
2022-09-01T00:55:36.500Z,1022.58
2022-09-01T00:56:36.540Z,1022.53
2022-09-01T00:57:36.496Z,1022.58
2022-09-01T00:58:36.485Z,1022.56
2022-09-01T00:59:36.456Z,1022.47
2022-09-01T01:00:36.439Z,1022.52
2022-09-01T01:01:36.480Z,1022.51
2022-09-01T01:02:36.500Z,1022.48
2022-09-01T01:03:36.391Z,1022.55
2022-09-01T01:04:36.400Z,1022.51
2022-09-01T01:05:36.365Z,1022.51
2022-09-01T01:06:36.369Z,1022.52
2022-09-01T01:07:36.354Z,1022.47
2022-09-01T01:08:36.344Z,1022.51
2022-09-01T01:09:40.311Z,1022.52
2022-09-01T01:10:36.320Z,1022.49
2022-09-01T01:11:36.303Z,1022.50
2022-09-01T01:12:36.298Z,1022.50
2022-09-01T01:13:36.297Z,1022.49
2022-09-01T01:14:36.283Z,1022.47
2022-09-01T01:15:36.268Z,1022.54
2022-09-01T01:16:36.302Z,1022.51
2022-09-01T01:17:36.219Z,1022.47
2022-09-01T01:18:36.246Z,1022.50
2022-09-01T01:19:39.028Z,1022.47
2022-09-01T01:20:36.198Z,1022.41
2022-09-01T01:21:36.167Z,1022.49
2022-09-01T01:22:36.173Z,1022.50
2022-09-01T01:23:36.220Z,1022.42
2022-09-01T01:24:36.139Z,1022.43
2022-09-01T01:25:36.124Z,1022.48
2022-09-01T01:26:36.103Z,1022.49
2022-09-01T01:27:38.095Z,1022.49
2022-09-01T01:28:37.131Z,1022.55
2022-09-01T01:29:36.083Z,1022.54
2022-09-01T01:30:36.143Z,1022.55
2022-09-01T01:31:36.305Z,1022.53
2022-09-01T01:32:36.028Z,1022.52
2022-09-01T01:33:36.007Z,1022.54
2022-09-01T01:34:36.017Z,1022.46
2022-09-01T01:35:35.986Z,1022.49
2022-09-01T01:36:35.968Z,1022.48
2022-09-01T01:37:35.970Z,1022.51
2022-09-01T01:38:35.988Z,1022.54
2022-09-01T01:39:35.947Z,1022.55
2022-09-01T01:40:36.234Z,1022.57
2022-09-01T01:41:35.909Z,1022.54
2022-09-01T01:42:35.900Z,1022.57
2022-09-01T01:43:35.880Z,1022.57
2022-09-01T01:44:35.944Z,1022.56
2022-09-01T01:45:35.891Z,1022.58
2022-09-01T01:46:35.891Z,1022.54
2022-09-01T01:47:35.871Z,1022.58
2022-09-01T01:48:35.895Z,1022.60
2022-09-01T01:49:35.859Z,1022.61
2022-09-01T01:50:35.983Z,1022.58
2022-09-01T01:51:35.790Z,1022.52
2022-09-01T01:52:35.833Z,1022.53
2022-09-01T01:53:35.760Z,1022.57
2022-09-01T01:54:35.776Z,1022.58
2022-09-01T01:55:35.746Z,1022.50
2022-09-01T01:56:35.754Z,1022.50
2022-09-01T01:57:39.520Z,1022.57
2022-09-01T01:58:35.691Z,1022.52
2022-09-01T01:59:35.720Z,1022.52
2022-09-01T02:00:35.661Z,1022.54
2022-09-01T02:01:35.705Z,1022.55
2022-09-01T02:02:35.653Z,1022.56
2022-09-01T02:03:35.654Z,1022.53
2022-09-01T02:04:35.651Z,1022.54
2022-09-01T02:05:35.648Z,1022.54
2022-09-01T02:06:35.633Z,1022.53
2022-09-01T02:07:35.824Z,1022.54
2022-09-01T02:08:35.571Z,1022.52
2022-09-01T02:09:35.584Z,1022.52
2022-09-01T02:10:35.540Z,1022.51
2022-09-01T02:11:35.537Z,1022.56
2022-09-01T02:12:35.506Z,1022.55
2022-09-01T02:13:35.498Z,1022.53
2022-09-01T02:14:35.499Z,1022.55
2022-09-01T02:15:35.519Z,1022.50
2022-09-01T02:16:35.554Z,1022.53
2022-09-01T02:17:35.462Z,1022.48
2022-09-01T02:18:35.469Z,1022.55
2022-09-01T02:19:35.440Z,1022.56
2022-09-01T02:20:35.408Z,1022.55
2022-09-01T02:21:35.390Z,1022.56
2022-09-01T02:22:35.394Z,1022.52
2022-09-01T02:23:35.392Z,1022.49
2022-09-01T02:24:35.371Z,1022.47
2022-09-01T02:25:35.362Z,1022.53
2022-09-01T02:26:35.343Z,1022.50
2022-09-01T02:27:35.333Z,1022.54
2022-09-01T02:28:35.997Z,1022.59
2022-09-01T02:29:38.632Z,1022.58
2022-09-01T02:30:36.307Z,1022.67
2022-09-01T02:31:35.292Z,1022.53
2022-09-01T02:32:35.284Z,1022.61
2022-09-01T02:33:35.248Z,1022.57
2022-09-01T02:34:35.902Z,1022.58
2022-09-01T02:35:35.271Z,1022.55
2022-09-01T02:36:35.282Z,1022.61
2022-09-01T02:37:35.191Z,1022.51
2022-09-01T02:38:35.189Z,1022.50
2022-09-01T02:39:35.179Z,1022.50
2022-09-01T02:40:35.284Z,1022.53
2022-09-01T02:41:35.154Z,1022.47
2022-09-01T02:42:35.198Z,1022.55
2022-09-01T02:43:36.068Z,1022.53
2022-09-01T02:44:39.473Z,1022.52
2022-09-01T02:45:36.116Z,1022.50
2022-09-01T02:46:35.391Z,1022.48
2022-09-01T02:47:35.091Z,1022.54
2022-09-01T02:48:35.123Z,1022.51
2022-09-01T02:49:35.172Z,1022.51
2022-09-01T02:50:35.021Z,1022.53
2022-09-01T02:51:35.024Z,1022.51
2022-09-01T02:52:38.855Z,1022.42
2022-09-01T02:53:34.980Z,1022.50
2022-09-01T02:54:34.986Z,1022.46
2022-09-01T02:55:34.973Z,1022.45
2022-09-01T02:56:34.992Z,1022.44
2022-09-01T02:57:34.928Z,1022.50
2022-09-01T02:58:34.922Z,1022.45
2022-09-01T02:59:34.942Z,1022.46
2022-09-01T03:00:34.901Z,1022.48
2022-09-01T03:01:34.966Z,1022.45
2022-09-01T03:02:34.878Z,1022.47
2022-09-01T03:03:34.926Z,1022.52
2022-09-01T03:04:34.977Z,1022.48
2022-09-01T03:05:34.830Z,1022.45
2022-09-01T03:06:35.083Z,1022.48
2022-09-01T03:07:34.805Z,1022.49
2022-09-01T03:08:34.790Z,1022.48
2022-09-01T03:09:34.805Z,1022.45
2022-09-01T03:10:34.809Z,1022.41
2022-09-01T03:11:34.757Z,1022.48
2022-09-01T03:12:34.731Z,1022.47
2022-09-01T03:13:34.739Z,1022.46
2022-09-01T03:14:34.748Z,1022.46
2022-09-01T03:15:34.988Z,1022.52
2022-09-01T03:16:34.759Z,1022.58
2022-09-01T03:17:34.712Z,1022.57
2022-09-01T03:18:34.647Z,1022.56
2022-09-01T03:19:34.666Z,1022.52
2022-09-01T03:20:34.634Z,1022.58
2022-09-01T03:21:34.753Z,1022.59
2022-09-01T03:22:34.617Z,1022.47
2022-09-01T03:23:34.645Z,1022.50
2022-09-01T03:24:34.574Z,1022.53
2022-09-01T03:25:34.577Z,1022.57
2022-09-01T03:26:34.598Z,1022.55
2022-09-01T03:27:34.870Z,1022.51
2022-09-01T03:28:34.534Z,1022.56
2022-09-01T03:29:36.281Z,1022.51
2022-09-01T03:30:34.524Z,1022.54
2022-09-01T03:31:34.599Z,1022.55
2022-09-01T03:32:34.541Z,1022.55
2022-09-01T03:33:34.477Z,1022.51
2022-09-01T03:34:34.451Z,1022.56
2022-09-01T03:35:34.445Z,1022.50
2022-09-01T03:36:34.429Z,1022.51
2022-09-01T03:37:34.422Z,1022.48
2022-09-01T03:38:34.390Z,1022.50
2022-09-01T03:39:34.389Z,1022.45
2022-09-01T03:40:34.476Z,1022.48
2022-09-01T03:41:34.391Z,1022.47
2022-09-01T03:42:34.613Z,1022.51
2022-09-01T03:43:36.067Z,1022.50
2022-09-01T03:44:34.328Z,1022.41
2022-09-01T03:45:34.380Z,1022.48
2022-09-01T03:46:36.820Z,1022.41
2022-09-01T03:47:34.281Z,1022.42
2022-09-01T03:48:34.273Z,1022.42
2022-09-01T03:49:34.256Z,1022.45
2022-09-01T03:50:34.241Z,1022.40
2022-09-01T03:51:34.241Z,1022.45
2022-09-01T03:52:34.206Z,1022.40
2022-09-01T03:53:34.265Z,1022.38
2022-09-01T03:54:34.191Z,1022.43
2022-09-01T03:55:34.173Z,1022.35
2022-09-01T03:56:34.173Z,1022.40
2022-09-01T03:57:34.152Z,1022.39
2022-09-01T03:58:34.126Z,1022.33
2022-09-01T03:59:34.201Z,1022.39
2022-09-01T04:00:34.109Z,1022.37
2022-09-01T04:01:34.206Z,1022.36
2022-09-01T04:02:34.111Z,1022.42
2022-09-01T04:03:34.114Z,1022.47
2022-09-01T04:04:34.059Z,1022.38
2022-09-01T04:05:34.082Z,1022.40
2022-09-01T04:06:34.063Z,1022.38
2022-09-01T04:07:34.028Z,1022.37
2022-09-01T04:08:33.996Z,1022.34
2022-09-01T04:09:34.036Z,1022.38
2022-09-01T04:10:33.987Z,1022.34
2022-09-01T04:11:33.993Z,1022.33
2022-09-01T04:12:33.954Z,1022.35
2022-09-01T04:13:33.949Z,1022.34
2022-09-01T04:14:33.976Z,1022.31
2022-09-01T04:15:33.915Z,1022.38
2022-09-01T04:16:34.031Z,1022.32
2022-09-01T04:17:33.887Z,1022.42
2022-09-01T04:18:33.882Z,1022.45
2022-09-01T04:19:33.910Z,1022.41
2022-09-01T04:20:33.853Z,1022.44
2022-09-01T04:21:34.622Z,1022.42
2022-09-01T04:22:33.831Z,1022.39
2022-09-01T04:23:33.836Z,1022.42
2022-09-01T04:24:33.855Z,1022.43
2022-09-01T04:25:33.792Z,1022.40
2022-09-01T04:26:34.100Z,1022.40
2022-09-01T04:27:33.770Z,1022.37
2022-09-01T04:28:33.736Z,1022.38
2022-09-01T04:29:33.760Z,1022.38
2022-09-01T04:30:33.752Z,1022.34
2022-09-01T04:31:34.110Z,1022.41
2022-09-01T04:32:33.730Z,1022.41
2022-09-01T04:33:33.681Z,1022.39
2022-09-01T04:34:33.662Z,1022.42
2022-09-01T04:35:37.764Z,1022.43
2022-09-01T04:36:33.706Z,1022.37
2022-09-01T04:37:33.643Z,1022.41
2022-09-01T04:38:33.634Z,1022.40
2022-09-01T04:39:33.640Z,1022.43
2022-09-01T04:40:33.748Z,1022.42
2022-09-01T04:41:33.587Z,1022.43
2022-09-01T04:42:33.571Z,1022.41
2022-09-01T04:43:33.549Z,1022.39
2022-09-01T04:44:33.545Z,1022.40
2022-09-01T04:45:33.664Z,1022.35
2022-09-01T04:46:33.534Z,1022.40
2022-09-01T04:47:36.114Z,1022.37
2022-09-01T04:48:33.498Z,1022.39
2022-09-01T04:49:33.476Z,1022.35
2022-09-01T04:50:34.131Z,1022.42
2022-09-01T04:51:33.517Z,1022.40
2022-09-01T04:52:37.327Z,1022.47
2022-09-01T04:53:33.421Z,1022.44
2022-09-01T04:54:33.408Z,1022.47
2022-09-01T04:55:33.396Z,1022.47
2022-09-01T04:56:34.353Z,1022.51
2022-09-01T04:57:33.390Z,1022.48
2022-09-01T04:58:33.428Z,1022.40
2022-09-01T04:59:33.338Z,1022.45
2022-09-01T05:00:33.357Z,1022.50
2022-09-01T05:01:33.374Z,1022.48
2022-09-01T05:02:33.451Z,1022.47
2022-09-01T05:03:33.335Z,1022.49
2022-09-01T05:04:33.285Z,1022.50
2022-09-01T05:05:33.266Z,1022.49
2022-09-01T05:06:33.288Z,1022.50
2022-09-01T05:07:33.251Z,1022.49
2022-09-01T05:08:33.233Z,1022.46
2022-09-01T05:09:33.244Z,1022.52
2022-09-01T05:10:33.195Z,1022.49
2022-09-01T05:11:33.197Z,1022.58
2022-09-01T05:12:33.175Z,1022.51
2022-09-01T05:13:33.166Z,1022.54
2022-09-01T05:14:33.158Z,1022.54
2022-09-01T05:15:33.179Z,1022.54
2022-09-01T05:16:33.136Z,1022.58
2022-09-01T05:17:33.226Z,1022.57
2022-09-01T05:18:33.323Z,1022.53
2022-09-01T05:19:33.190Z,1022.57
2022-09-01T05:20:33.145Z,1022.57
2022-09-01T05:21:33.091Z,1022.55
2022-09-01T05:22:33.071Z,1022.53
2022-09-01T05:23:33.034Z,1022.48
2022-09-01T05:24:33.011Z,1022.51
2022-09-01T05:25:33.010Z,1022.54
2022-09-01T05:26:33.000Z,1022.53
2022-09-01T05:27:32.998Z,1022.52
2022-09-01T05:28:36.719Z,1022.51
2022-09-01T05:29:32.969Z,1022.56
2022-09-01T05:30:33.591Z,1022.53
2022-09-01T05:31:32.990Z,1022.58
2022-09-01T05:32:32.970Z,1022.54
2022-09-01T05:33:32.912Z,1022.53
2022-09-01T05:34:32.889Z,1022.58
2022-09-01T05:35:33.228Z,1022.62
2022-09-01T05:36:32.863Z,1022.61
2022-09-01T05:37:32.882Z,1022.61
2022-09-01T05:38:32.850Z,1022.62
2022-09-01T05:39:32.870Z,1022.56
2022-09-01T05:40:32.845Z,1022.55
2022-09-01T05:41:32.829Z,1022.64
2022-09-01T05:42:32.819Z,1022.58
2022-09-01T05:43:32.796Z,1022.63
2022-09-01T05:44:32.765Z,1022.59
2022-09-01T05:45:44.901Z,1022.59
2022-09-01T05:46:33.765Z,1022.56
2022-09-01T05:47:32.736Z,1022.61
2022-09-01T05:48:32.739Z,1022.67
2022-09-01T05:49:32.700Z,1022.60
2022-09-01T05:50:32.683Z,1022.62
2022-09-01T05:51:50.252Z,1022.57
2022-09-01T05:52:33.672Z,1022.57
2022-09-01T05:53:32.642Z,1022.69
2022-09-01T05:54:32.671Z,1022.68
2022-09-01T05:55:32.617Z,1022.60
2022-09-01T05:56:32.602Z,1022.68
2022-09-01T05:57:35.014Z,1022.64
2022-09-01T05:59:33.586Z,1022.65
2022-09-01T06:00:32.554Z,1022.67
2022-09-01T06:01:32.589Z,1022.69
2022-09-01T06:02:32.598Z,1022.68
2022-09-01T06:03:32.567Z,1022.62
2022-09-01T06:04:33.553Z,1022.68
2022-09-01T06:05:32.499Z,1022.61
2022-09-01T06:06:43.947Z,1022.66
2022-09-01T06:07:33.476Z,1022.63
2022-09-01T06:08:32.449Z,1022.59
2022-09-01T06:09:32.482Z,1022.67
2022-09-01T06:10:32.428Z,1022.63
2022-09-01T06:11:32.491Z,1022.59
2022-09-01T06:12:32.418Z,1022.60
2022-09-01T06:13:32.423Z,1022.60
2022-09-01T06:14:32.379Z,1022.63
2022-09-01T06:15:32.358Z,1022.56
2022-09-01T06:16:32.422Z,1022.60
2022-09-01T06:17:34.695Z,1022.60
2022-09-01T06:18:32.324Z,1022.60
2022-09-01T06:19:36.735Z,1022.56
2022-09-01T06:20:32.307Z,1022.58
2022-09-01T06:21:32.300Z,1022.66
2022-09-01T06:22:32.325Z,1022.63
2022-09-01T06:23:32.263Z,1022.58
2022-09-01T06:24:32.257Z,1022.67
2022-09-01T06:25:32.234Z,1022.70
2022-09-01T06:26:32.224Z,1022.62
2022-09-01T06:27:32.301Z,1022.73
2022-09-01T06:28:36.035Z,1022.74
2022-09-01T06:29:32.183Z,1022.71
2022-09-01T06:30:32.219Z,1022.73
2022-09-01T06:31:36.064Z,1022.73
2022-09-01T06:32:32.164Z,1022.77
2022-09-01T06:33:32.121Z,1022.73
2022-09-01T06:34:32.793Z,1022.71
2022-09-01T06:35:32.099Z,1022.66
2022-09-01T06:36:34.967Z,1022.65
2022-09-01T06:37:32.096Z,1022.69
2022-09-01T06:38:32.068Z,1022.64
2022-09-01T06:39:32.761Z,1022.67
2022-09-01T06:40:32.092Z,1022.75
2022-09-01T06:41:32.020Z,1022.72
2022-09-01T06:42:32.009Z,1022.76
2022-09-01T06:43:32.007Z,1022.76
2022-09-01T06:44:32.724Z,1022.70
2022-09-01T06:45:31.995Z,1022.80
2022-09-01T06:46:32.066Z,1022.77
2022-09-01T06:47:31.958Z,1022.77
2022-09-01T06:48:31.985Z,1022.77
2022-09-01T06:49:31.923Z,1022.77
2022-09-01T06:51:32.906Z,1022.71
2022-09-01T06:53:32.138Z,1022.76
2022-09-01T06:53:34.188Z,1022.78
2022-09-01T06:54:31.856Z,1022.75
2022-09-01T06:55:31.849Z,1022.76
2022-09-01T06:56:32.296Z,1022.71
2022-09-01T06:58:33.691Z,1022.79
2022-09-01T06:59:34.874Z,1022.74
2022-09-01T07:00:31.761Z,1022.77
2022-09-01T07:01:31.907Z,1022.75
2022-09-01T07:02:33.735Z,1022.76
2022-09-01T07:03:31.734Z,1022.77
2022-09-01T07:08:32.688Z,1022.70
2022-09-01T07:09:47.764Z,1022.72
2022-09-01T07:10:32.661Z,1022.67
2022-09-01T07:12:32.630Z,1022.75
2022-09-01T07:13:31.626Z,1022.73
2022-09-01T07:14:32.844Z,1022.67
2022-09-01T07:16:32.080Z,1022.76
2022-09-01T07:16:35.429Z,1022.75
2022-09-01T07:17:31.558Z,1022.73
2022-09-01T07:18:31.588Z,1022.81
2022-09-01T07:20:32.524Z,1022.78
2022-09-01T07:21:41.745Z,1022.80
2022-09-01T07:22:36.260Z,1022.73
2022-09-01T07:23:46.205Z,1022.78
2022-09-01T07:24:32.466Z,1022.73
2022-09-01T07:26:00.494Z,1022.74
2022-09-01T07:26:32.471Z,1022.77
2022-09-01T07:27:35.945Z,1022.82
2022-09-01T07:28:39.951Z,1022.83
2022-09-01T07:29:32.391Z,1022.82
2022-09-01T07:30:31.377Z,1022.83
2022-09-01T07:32:47.986Z,1022.84
2022-09-01T07:33:44.469Z,1022.83
2022-09-01T07:34:40.013Z,1022.88
2022-09-01T07:35:32.592Z,1022.86
2022-09-01T07:36:32.322Z,1022.84
2022-09-01T07:38:49.602Z,1022.83
2022-09-01T07:41:44.194Z,1022.75
2022-09-01T07:42:30.882Z,1022.81
2022-09-01T07:43:33.466Z,1022.79
2022-09-01T07:44:31.208Z,1022.88
2022-09-01T07:45:31.194Z,1022.80
2022-09-01T07:46:38.361Z,1022.86
2022-09-01T07:49:52.379Z,1022.90
2022-09-01T07:51:34.129Z,1022.84
2022-09-01T07:51:36.843Z,1022.86
2022-09-01T07:52:32.126Z,1022.83
2022-09-01T07:53:31.121Z,1022.84
2022-09-01T07:54:31.071Z,1022.89
2022-09-01T07:55:31.090Z,1022.83
2022-09-01T07:56:31.071Z,1022.82
2022-09-01T07:57:31.098Z,1022.90
2022-09-01T07:58:31.035Z,1022.87
2022-09-01T07:59:31.004Z,1022.84
2022-09-01T08:00:31.062Z,1022.90
2022-09-01T08:01:31.035Z,1022.92
2022-09-01T08:02:31.101Z,1022.86
2022-09-01T08:03:31.215Z,1022.95
2022-09-01T08:04:30.936Z,1022.93
2022-09-01T08:05:30.941Z,1022.88
2022-09-01T08:06:37.969Z,1022.89
2022-09-01T08:07:31.887Z,1022.90
2022-09-01T08:08:31.118Z,1022.96
2022-09-01T08:09:38.234Z,1022.94
2022-09-01T08:10:31.883Z,1022.96
2022-09-01T08:12:31.854Z,1022.89
2022-09-01T08:13:30.843Z,1022.92
2022-09-01T08:14:33.793Z,1022.88
2022-09-01T08:15:40.412Z,1022.92
2022-09-01T08:16:39.389Z,1022.88
2022-09-01T08:17:50.661Z,1022.95
2022-09-01T08:18:48.129Z,1022.98
2022-09-01T08:19:33.697Z,1022.96
2022-09-01T08:20:30.741Z,1022.97
2022-09-01T08:21:30.716Z,1022.90
2022-09-01T08:22:30.768Z,1022.90
2022-09-01T08:23:31.023Z,1022.85
2022-09-01T08:24:30.685Z,1022.89
2022-09-01T08:25:30.657Z,1022.90
2022-09-01T08:26:30.656Z,1022.89
2022-09-01T08:27:30.666Z,1022.90
2022-09-01T08:28:30.866Z,1022.95
2022-09-01T08:29:30.677Z,1022.88
2022-09-01T08:30:30.614Z,1022.90
2022-09-01T08:31:31.246Z,1022.95
2022-09-01T08:32:30.585Z,1022.89
2022-09-01T08:33:30.557Z,1022.93
2022-09-01T08:34:30.578Z,1022.93
2022-09-01T08:35:31.087Z,1022.90
2022-09-01T08:36:30.525Z,1022.82
2022-09-01T08:37:30.512Z,1022.81
2022-09-01T08:38:30.582Z,1022.91
2022-09-01T08:39:30.471Z,1022.83
2022-09-01T08:40:30.510Z,1022.87
2022-09-01T08:41:35.206Z,1022.84
2022-09-01T08:42:32.807Z,1022.88
2022-09-01T08:43:30.453Z,1022.85
2022-09-01T08:44:30.435Z,1022.88
2022-09-01T08:45:30.406Z,1022.91
2022-09-01T08:46:30.542Z,1022.88
2022-09-01T08:47:43.715Z,1022.85
2022-09-01T08:49:42.196Z,1022.87
2022-09-01T08:50:31.353Z,1022.85
2022-09-01T08:51:30.530Z,1022.87
2022-09-01T08:52:30.363Z,1022.90
2022-09-01T08:53:32.653Z,1022.92
2022-09-01T08:54:31.897Z,1022.88
2022-09-01T08:55:30.283Z,1022.89
2022-09-01T08:56:30.274Z,1022.91
2022-09-01T08:57:30.261Z,1022.89
2022-09-01T08:58:30.232Z,1022.91
2022-09-01T08:59:30.296Z,1022.87
2022-09-01T09:00:30.233Z,1022.81
2022-09-01T09:01:30.520Z,1022.76
2022-09-01T09:02:30.230Z,1022.84
2022-09-01T09:03:40.532Z,1022.88
2022-09-01T09:04:31.165Z,1022.87
2022-09-01T09:05:30.143Z,1022.86
2022-09-01T09:06:30.131Z,1022.87
2022-09-01T09:07:30.841Z,1022.87
2022-09-01T09:08:33.545Z,1022.85
2022-09-01T09:09:34.128Z,1022.83
2022-09-01T09:10:30.074Z,1022.90
2022-09-01T09:11:30.176Z,1022.80
2022-09-01T09:12:30.060Z,1022.84
2022-09-01T09:13:30.076Z,1022.76
2022-09-01T09:14:30.091Z,1022.78
2022-09-01T09:15:30.095Z,1022.77
2022-09-01T09:16:30.113Z,1022.77
2022-09-01T09:17:29.998Z,1022.74
2022-09-01T09:18:39.954Z,1022.78
2022-09-01T09:19:30.962Z,1022.73
2022-09-01T09:20:30.028Z,1022.68
2022-09-01T09:21:30.394Z,1022.74
2022-09-01T09:22:29.995Z,1022.72
2022-09-01T09:23:29.911Z,1022.68
2022-09-01T09:24:39.308Z,1022.66
2022-09-01T09:25:30.885Z,1022.72
2022-09-01T09:26:42.244Z,1022.75
2022-09-01T09:27:31.113Z,1022.69
2022-09-01T09:28:29.877Z,1022.66
2022-09-01T09:29:30.058Z,1022.69
2022-09-01T09:30:29.822Z,1022.69
2022-09-01T09:31:29.886Z,1022.74
2022-09-01T09:32:50.510Z,1022.73
2022-09-01T09:33:49.817Z,1022.62
2022-09-01T09:34:30.794Z,1022.68
2022-09-01T09:35:29.811Z,1022.71
2022-09-01T09:36:29.815Z,1022.77
2022-09-01T09:37:29.750Z,1022.60
2022-09-01T09:38:29.729Z,1022.63
2022-09-01T09:39:29.945Z,1022.71
2022-09-01T09:40:29.828Z,1022.63
2022-09-01T09:41:29.846Z,1022.61
2022-09-01T09:42:34.737Z,1022.64
2022-09-01T09:43:30.638Z,1022.55
2022-09-01T09:44:29.698Z,1022.66
2022-09-01T09:45:29.627Z,1022.57
2022-09-01T09:46:29.664Z,1022.55
2022-09-01T09:47:43.031Z,1022.55
2022-09-01T09:48:30.612Z,1022.55
2022-09-01T09:49:35.898Z,1022.56
2022-09-01T09:50:30.581Z,1022.53
2022-09-01T09:51:29.673Z,1022.55
2022-09-01T09:52:29.767Z,1022.58
2022-09-01T09:53:29.527Z,1022.58
2022-09-01T09:54:29.508Z,1022.52
2022-09-01T09:55:29.518Z,1022.51
2022-09-01T09:56:29.544Z,1022.55
2022-09-01T09:57:29.500Z,1022.46
2022-09-01T09:58:29.487Z,1022.52
2022-09-01T09:59:56.580Z,1022.50
2022-09-01T10:00:30.440Z,1022.53
2022-09-01T10:01:33.309Z,1022.48
2022-09-01T10:02:29.416Z,1022.39
2022-09-01T10:03:29.396Z,1022.38
2022-09-01T10:04:29.426Z,1022.41
2022-09-01T10:05:30.183Z,1022.36
2022-09-01T10:06:29.353Z,1022.43
2022-09-01T10:07:29.416Z,1022.37
2022-09-01T10:08:29.380Z,1022.34
2022-09-01T10:09:29.383Z,1022.31
2022-09-01T10:10:29.329Z,1022.36
2022-09-01T10:11:33.438Z,1022.30
2022-09-01T10:12:30.307Z,1022.24
2022-09-01T10:13:29.260Z,1022.34
2022-09-01T10:14:51.832Z,1022.30
2022-09-01T10:15:30.293Z,1022.24
2022-09-01T10:16:32.034Z,1022.26
2022-09-01T10:17:29.419Z,1022.30
2022-09-01T10:18:29.771Z,1022.31
2022-09-01T10:19:32.348Z,1022.24
2022-09-01T10:20:30.175Z,1022.23
2022-09-01T10:21:29.191Z,1022.21
2022-09-01T10:22:29.133Z,1022.23
2022-09-01T10:23:31.369Z,1022.25
2022-09-01T10:24:30.924Z,1022.25
2022-09-01T10:25:29.623Z,1022.14
2022-09-01T10:26:29.086Z,1022.19
2022-09-01T10:27:29.163Z,1022.11
2022-09-01T10:28:29.068Z,1022.12
2022-09-01T10:29:35.081Z,1022.14
2022-09-01T10:30:30.150Z,1022.14
2022-09-01T10:31:32.217Z,1022.23
2022-09-01T10:32:36.659Z,1022.13
2022-09-01T10:33:30.022Z,1022.07
2022-09-01T10:34:29.006Z,1022.19
2022-09-01T10:35:28.980Z,1022.17
2022-09-01T10:36:28.959Z,1022.15
2022-09-01T10:37:28.966Z,1022.17
2022-09-01T10:38:29.039Z,1022.12
2022-09-01T10:39:30.966Z,1022.09
2022-09-01T10:40:32.016Z,1022.13
2022-09-01T10:41:28.913Z,1022.10
2022-09-01T10:42:29.135Z,1022.17
2022-09-01T10:43:29.380Z,1022.12
2022-09-01T10:44:31.360Z,1022.09
2022-09-01T10:45:28.840Z,1022.12
2022-09-01T10:46:38.776Z,1022.10
2022-09-01T10:47:29.886Z,1022.07
2022-09-01T10:48:30.833Z,1022.16
2022-09-01T10:49:29.662Z,1022.09
2022-09-01T10:50:29.508Z,1022.08
2022-09-01T10:51:36.255Z,1022.07
2022-09-01T10:52:29.783Z,1022.05
2022-09-01T10:53:28.768Z,1022.09
2022-09-01T10:54:28.818Z,1022.07
2022-09-01T10:55:28.748Z,1022.06
2022-09-01T10:56:35.549Z,1022.05
2022-09-01T10:57:30.617Z,1022.14
2022-09-01T10:59:32.049Z,1022.05
2022-09-01T11:00:36.638Z,1022.06
2022-09-01T11:01:47.780Z,1022.04
2022-09-01T11:02:35.796Z,1022.06
2022-09-01T11:03:30.643Z,1022.01
2022-09-01T11:04:28.737Z,1022.06
2022-09-01T11:05:33.126Z,1022.03
2022-09-01T11:06:33.177Z,1022.01
2022-09-01T11:07:50.319Z,1022.05
2022-09-01T11:08:29.870Z,1022.05
2022-09-01T11:09:28.567Z,1022.00
2022-09-01T11:10:33.231Z,1021.95
2022-09-01T11:11:29.626Z,1021.92
2022-09-01T11:12:29.930Z,1021.85
2022-09-01T11:13:28.549Z,1021.95
2022-09-01T11:14:28.603Z,1021.89
2022-09-01T11:15:28.553Z,1021.90
2022-09-01T11:17:29.628Z,1021.95
2022-09-01T11:18:28.416Z,1021.87
2022-09-01T11:19:28.468Z,1021.90
2022-09-01T11:20:28.395Z,1021.90
2022-09-01T11:21:28.382Z,1021.87
2022-09-01T11:22:28.489Z,1021.85
2022-09-01T11:23:28.393Z,1021.95
2022-09-01T11:24:28.459Z,1021.89
2022-09-01T11:25:38.712Z,1021.84
2022-09-01T11:26:29.345Z,1021.76
2022-09-01T11:27:28.319Z,1021.79
2022-09-01T11:28:28.440Z,1021.73
2022-09-01T11:29:28.282Z,1021.74
2022-09-01T11:30:29.227Z,1021.77
2022-09-01T11:31:28.401Z,1021.70
2022-09-01T11:32:28.369Z,1021.70
2022-09-01T11:33:28.242Z,1021.75
2022-09-01T11:34:28.297Z,1021.69
2022-09-01T11:35:28.276Z,1021.73
2022-09-01T11:36:28.195Z,1021.70
2022-09-01T11:37:28.198Z,1021.72
2022-09-01T11:38:28.205Z,1021.72
2022-09-01T11:39:28.319Z,1021.66
2022-09-01T11:40:29.723Z,1021.71
2022-09-01T11:41:28.185Z,1021.73
2022-09-01T11:42:28.125Z,1021.70
2022-09-01T11:43:28.109Z,1021.65
2022-09-01T11:44:28.113Z,1021.67
2022-09-01T11:45:28.156Z,1021.67
2022-09-01T11:46:28.205Z,1021.66
2022-09-01T11:47:28.083Z,1021.60
2022-09-01T11:48:28.065Z,1021.67
2022-09-01T11:49:28.077Z,1021.62
2022-09-01T11:50:28.052Z,1021.54
2022-09-01T11:51:28.022Z,1021.55
2022-09-01T11:52:28.014Z,1021.54
2022-09-01T11:53:28.105Z,1021.55
2022-09-01T11:54:27.969Z,1021.58
2022-09-01T11:55:27.995Z,1021.51
2022-09-01T11:56:27.960Z,1021.53
2022-09-01T11:57:27.949Z,1021.54
2022-09-01T11:58:28.618Z,1021.46
2022-09-01T11:59:29.061Z,1021.51
2022-09-01T12:00:27.891Z,1021.49
2022-09-01T12:01:27.933Z,1021.51
2022-09-01T12:02:27.904Z,1021.54
2022-09-01T12:03:27.907Z,1021.45
2022-09-01T12:04:28.024Z,1021.48
2022-09-01T12:05:27.892Z,1021.42
2022-09-01T12:06:27.884Z,1021.43
2022-09-01T12:07:28.100Z,1021.39
2022-09-01T12:08:27.823Z,1021.47
2022-09-01T12:09:27.775Z,1021.41
2022-09-01T12:10:27.768Z,1021.43
2022-09-01T12:11:27.794Z,1021.44
2022-09-01T12:12:27.767Z,1021.41
2022-09-01T12:13:27.733Z,1021.34
2022-09-01T12:14:35.231Z,1021.41
2022-09-01T12:15:28.735Z,1021.36
2022-09-01T12:16:27.723Z,1021.42
2022-09-01T12:17:27.698Z,1021.47
2022-09-01T12:18:27.662Z,1021.43
2022-09-01T12:19:27.665Z,1021.45
2022-09-01T12:20:29.417Z,1021.46
2022-09-01T12:21:27.646Z,1021.35
2022-09-01T12:22:27.735Z,1021.44
2022-09-01T12:23:27.691Z,1021.35
2022-09-01T12:24:27.596Z,1021.50